Time;durP1;ratioP1;P1;durP2;ratioP2;P2;SDS_P1;SDS_P2;PMS_P1;PMS_P2;Temp;Humidity;BMP_temperature;BMP_pressure;BME280_temperature;BME280_humidity;BME280_pressure;Samples;Min_cycle;Max_cycle;Signal;HPM_P1;HPM_P2
2021/06/14 00:00:39;;;;;;;2.47;1.80;;;23.00;69.30;;;;;;5133274;27;20541;-50
2021/06/14 00:03:05;;;;;;;2.40;2.00;;;23.00;69.30;;;;;;5133576;27;20605;-52
2021/06/14 00:05:35;;;;;;;3.53;1.95;;;22.90;69.30;;;;;;5133663;27;20051;-50
2021/06/14 00:08:01;;;;;;;2.70;2.25;;;22.90;69.30;;;;;;5133233;27;20050;-51
2021/06/14 00:10:29;;;;;;;2.35;2.00;;;22.90;69.30;;;;;;5132911;27;20046;-50
2021/06/14 00:12:55;;;;;;;2.60;1.80;;;22.90;69.30;;;;;;5133825;27;20042;-46
2021/06/14 00:15:20;;;;;;;2.58;2.15;;;22.90;69.30;;;;;;5133447;27;20070;-52
2021/06/14 00:17:46;;;;;;;2.05;1.63;;;22.90;69.30;;;;;;5133608;27;20044;-49
2021/06/14 00:20:13;;;;;;;3.85;1.95;;;23.00;69.40;;;;;;5133300;27;20130;-52
2021/06/14 00:22:41;;;;;;;1.80;1.67;;;22.90;69.40;;;;;;5132745;27;20667;-48
2021/06/14 00:25:10;;;;;;;1.45;1.35;;;22.90;69.30;;;;;;5132902;27;20058;-49
2021/06/14 00:27:35;;;;;;;1.85;1.65;;;22.90;69.40;;;;;;5133210;27;20051;-49
2021/06/14 00:30:02;;;;;;;2.58;1.92;;;22.90;69.30;;;;;;5132924;28;20069;-49
2021/06/14 00:32:29;;;;;;;2.08;1.70;;;22.90;70.00;;;;;;5132987;28;20051;-52
2021/06/14 00:34:54;;;;;;;2.45;2.17;;;22.90;69.40;;;;;;5133207;28;20129;-51
2021/06/14 00:37:20;;;;;;;2.10;1.90;;;22.90;69.40;;;;;;5133198;28;20491;-52
2021/06/14 00:39:46;;;;;;;1.92;1.60;;;22.90;69.40;;;;;;5132558;28;20046;-51
2021/06/14 00:42:11;;;;;;;2.05;1.85;;;22.90;69.40;;;;;;5132641;28;20051;-50
2021/06/14 00:44:37;;;;;;;2.05;1.73;;;22.90;69.40;;;;;;5132941;28;20092;-51
2021/06/14 00:47:03;;;;;;;1.85;1.65;;;22.90;69.40;;;;;;5133064;28;20527;-50
2021/06/14 00:49:29;;;;;;;2.20;1.80;;;22.90;69.40;;;;;;5133104;28;20114;-50
2021/06/14 00:51:55;;;;;;;2.55;1.85;;;22.90;69.40;;;;;;5133020;28;20047;-48
2021/06/14 00:54:20;;;;;;;2.80;1.95;;;22.90;69.50;;;;;;5132267;28;20051;-48
2021/06/14 00:56:46;;;;;;;2.70;1.80;;;22.90;69.50;;;;;;5132380;28;20046;-51
2021/06/14 00:59:14;;;;;;;3.88;2.08;;;22.90;69.50;;;;;;5132849;28;20162;-45
2021/06/14 01:01:40;;;;;;;2.55;2.25;;;22.90;69.50;;;;;;5132947;28;20043;-50
2021/06/14 01:04:06;;;;;;;2.40;1.95;;;22.90;69.50;;;;;;5132284;28;20050;-53
2021/06/14 01:06:31;;;;;;;2.50;2.03;;;22.80;69.50;;;;;;5132823;28;20483;-50
2021/06/14 01:08:57;;;;;;;2.38;1.73;;;22.90;69.50;;;;;;5132909;28;20065;-50
2021/06/14 01:11:48;;;;;;;2.47;2.10;;;22.90;69.50;;;;;;5132036;28;20053;-49
2021/06/14 01:15:00;;;;;;;1.98;1.70;;;22.90;69.50;;;;;;5132312;28;20069;-48
2021/06/14 01:17:53;;;;;;;2.50;2.30;;;22.90;69.50;;;;;;5049273;28;20041;-50
2021/06/14 01:20:34;;;;;;;2.00;1.80;;;22.80;69.50;;;;;;5049283;28;20136;-50
2021/06/14 01:23:30;;;;;;;1.98;1.63;;;22.80;69.50;;;;;;5049384;28;20048;-48
2021/06/14 01:26:03;;;;;;;2.42;1.75;;;22.80;69.50;;;;;;5048331;28;20087;-47
2021/06/14 01:28:32;;;;;;;2.40;1.80;;;22.80;69.60;;;;;;5049007;28;20049;-49
2021/06/14 01:30:58;;;;;;;1.80;1.67;;;22.80;69.60;;;;;;5049073;28;20087;-51
2021/06/14 01:33:27;;;;;;;2.72;2.03;;;22.80;69.60;;;;;;5049258;28;20053;-45
2021/06/14 01:35:57;;;;;;;1.98;1.75;;;22.80;69.60;;;;;;5048779;28;20398;-47
2021/06/14 01:38:27;;;;;;;1.90;1.70;;;22.80;69.60;;;;;;5050256;28;20123;-50
2021/06/14 01:40:57;;;;;;;2.42;1.85;;;22.80;69.60;;;;;;5052468;28;20065;-49
2021/06/14 01:43:25;;;;;;;2.67;1.80;;;22.80;69.60;;;;;;5052248;28;20060;-49
2021/06/14 01:45:55;;;;;;;3.10;1.90;;;22.80;69.60;;;;;;5052389;28;20107;-46
2021/06/14 01:48:21;;;;;;;2.25;1.73;;;22.80;69.60;;;;;;5032718;28;20151;-51
2021/06/14 01:50:49;;;;;;;1.85;1.65;;;22.80;69.60;;;;;;5032725;28;20045;-50
2021/06/14 01:53:15;;;;;;;2.00;1.80;;;22.80;69.60;;;;;;5043015;28;20060;-47
2021/06/14 01:55:42;;;;;;;2.78;2.22;;;22.80;69.60;;;;;;5094957;28;20052;-49
2021/06/14 01:58:09;;;;;;;1.85;1.67;;;22.80;69.60;;;;;;5109829;28;20047;-52
2021/06/14 02:00:38;;;;;;;2.47;1.58;;;22.80;69.70;;;;;;5115298;28;20047;-48
2021/06/14 02:03:06;;;;;;;2.33;1.80;;;22.80;70.30;;;;;;5114749;28;20047;-49
2021/06/14 02:05:32;;;;;;;2.92;2.13;;;22.80;69.70;;;;;;5115097;28;20419;-50
2021/06/14 02:08:00;;;;;;;2.50;1.40;;;22.80;69.70;;;;;;5096415;28;20057;-49
2021/06/14 02:10:27;;;;;;;3.05;1.98;;;22.80;69.70;;;;;;5115057;28;20035;-52
2021/06/14 02:12:54;;;;;;;2.95;1.90;;;22.80;69.70;;;;;;5114920;28;20130;-49
2021/06/14 02:15:21;;;;;;;1.83;1.73;;;22.80;69.70;;;;;;5115135;28;20475;-47
2021/06/14 02:17:48;;;;;;;2.67;1.50;;;22.70;69.60;;;;;;5114607;28;20395;-47
2021/06/14 02:20:15;;;;;;;2.83;1.85;;;22.70;69.70;;;;;;5114945;28;20047;-48
2021/06/14 02:22:41;;;;;;;1.98;1.63;;;22.80;69.80;;;;;;5114713;28;20096;-48
2021/06/14 02:25:09;;;;;;;2.05;1.85;;;22.70;69.70;;;;;;5115142;28;20051;-51
2021/06/14 02:27:36;;;;;;;2.40;1.98;;;22.70;69.70;;;;;;5114831;28;20415;-51
2021/06/14 02:30:05;;;;;;;2.17;1.85;;;22.70;69.70;;;;;;5119641;27;20115;-46
2021/06/14 02:32:32;;;;;;;1.70;1.40;;;22.70;69.70;;;;;;5134966;27;20051;-49
2021/06/14 02:34:59;;;;;;;2.33;1.65;;;22.70;69.70;;;;;;5135139;27;20039;-51
2021/06/14 02:37:25;;;;;;;2.08;1.88;;;22.70;69.70;;;;;;5135441;27;20403;-52
2021/06/14 02:39:52;;;;;;;2.25;1.73;;;22.70;69.80;;;;;;5135076;27;20511;-50
2021/06/14 02:42:18;;;;;;;2.33;1.75;;;22.70;69.70;;;;;;5135372;27;20047;-51
2021/06/14 02:44:46;;;;;;;2.20;2.00;;;22.70;69.70;;;;;;5134430;27;20407;-52
2021/06/14 02:47:16;;;;;;;2.53;1.77;;;22.70;69.70;;;;;;5134921;27;20135;-48
2021/06/14 02:49:43;;;;;;;2.42;1.48;;;22.70;69.70;;;;;;5133379;27;20043;-46
2021/06/14 02:52:12;;;;;;;1.60;1.50;;;22.60;69.70;;;;;;5113630;28;20044;-51
2021/06/14 02:54:57;;;;;;;2.05;1.70;;;22.70;69.80;;;;;;5113380;28;20043;-50
2021/06/14 02:57:28;;;;;;;2.80;1.80;;;22.70;69.80;;;;;;5113464;28;20059;-47
2021/06/14 02:59:54;;;;;;;2.70;1.60;;;22.70;69.80;;;;;;5112979;28;20051;-50
2021/06/14 03:02:23;;;;;;;2.03;1.70;;;22.70;69.80;;;;;;5131415;27;20047;-49
2021/06/14 03:04:49;;;;;;;1.80;1.67;;;22.70;69.80;;;;;;5134425;27;20043;-52
2021/06/14 03:07:15;;;;;;;2.92;1.90;;;22.70;69.80;;;;;;5134301;27;20039;-50
2021/06/14 03:09:42;;;;;;;1.73;1.48;;;22.60;69.80;;;;;;5134464;27;20058;-49
2021/06/14 03:12:09;;;;;;;2.15;1.80;;;22.60;69.80;;;;;;5134116;27;20497;-50
2021/06/14 03:14:35;;;;;;;1.60;1.50;;;22.70;69.90;;;;;;5134447;27;20046;-51
2021/06/14 03:17:03;;;;;;;3.17;1.90;;;22.60;69.80;;;;;;5133917;27;20043;-52
2021/06/14 03:19:30;;;;;;;2.42;1.60;;;22.70;69.90;;;;;;5134160;27;20111;-44
2021/06/14 03:21:56;;;;;;;1.90;1.70;;;22.60;69.80;;;;;;5133808;27;20074;-47
2021/06/14 03:24:21;;;;;;;2.03;1.70;;;22.70;69.90;;;;;;5134134;27;20134;-47
2021/06/14 03:26:47;;;;;;;1.80;1.58;;;22.70;69.90;;;;;;5134022;27;20503;-49
2021/06/14 03:29:19;;;;;;;1.67;1.58;;;22.50;69.80;;;;;;5134132;27;20050;-51
2021/06/14 03:31:47;;;;;;;2.00;1.75;;;22.70;69.90;;;;;;5133496;27;20128;-48
2021/06/14 03:34:14;;;;;;;2.13;1.80;;;22.60;69.90;;;;;;5133091;27;20444;-46
2021/06/14 03:36:41;;;;;;;1.77;1.63;;;22.60;69.90;;;;;;5133588;27;20099;-46
2021/06/14 03:39:07;;;;;;;2.28;1.67;;;22.70;70.00;;;;;;5134086;27;20047;-48
2021/06/14 03:41:33;;;;;;;2.58;2.00;;;22.60;69.90;;;;;;5133831;27;20108;-53
2021/06/14 03:44:03;;;;;;;1.85;1.60;;;22.60;69.90;;;;;;5133402;27;20043;-52
2021/06/14 03:46:29;;;;;;;2.13;1.60;;;22.60;69.90;;;;;;5133468;27;20554;-52
2021/06/14 03:48:55;;;;;;;1.88;1.67;;;22.60;69.90;;;;;;5133495;27;20050;-52
2021/06/14 03:51:20;;;;;;;2.05;1.60;;;22.60;69.90;;;;;;5133719;27;20047;-49
2021/06/14 03:53:58;;;;;;;2.55;1.60;;;22.60;69.90;;;;;;5133421;27;20088;-50
2021/06/14 03:56:26;;;;;;;2.33;1.63;;;22.60;69.90;;;;;;5133802;27;20150;-49
2021/06/14 03:58:52;;;;;;;1.65;1.50;;;22.60;69.90;;;;;;5133527;27;20054;-52
2021/06/14 04:01:18;;;;;;;1.92;1.60;;;22.60;70.00;;;;;;5133003;27;20070;-52
2021/06/14 04:03:49;;;;;;;1.92;1.35;;;22.60;70.00;;;;;;5133070;27;20114;-52
2021/06/14 04:06:15;;;;;;;3.80;1.75;;;22.50;69.90;;;;;;5132713;27;20506;-50
2021/06/14 04:08:40;;;;;;;2.40;1.73;;;22.60;70.00;;;;;;5133458;27;20043;-47
2021/06/14 04:11:06;;;;;;;2.35;1.92;;;22.60;70.00;;;;;;5133390;27;20050;-52
2021/06/14 04:13:32;;;;;;;1.75;1.60;;;22.60;70.00;;;;;;5133263;27;20062;-51
2021/06/14 04:15:57;;;;;;;1.60;1.50;;;22.60;70.00;;;;;;5132833;27;20066;-49
2021/06/14 04:18:23;;;;;;;2.13;1.60;;;22.60;70.00;;;;;;5132727;27;20498;-52
2021/06/14 04:20:49;;;;;;;1.90;1.67;;;22.50;69.90;;;;;;5133168;27;20071;-49
2021/06/14 04:23:14;;;;;;;3.10;1.77;;;22.50;70.00;;;;;;5133221;27;20076;-51
2021/06/14 04:25:40;;;;;;;2.50;1.95;;;22.50;70.00;;;;;;5132781;28;20118;-52
2021/06/14 04:28:07;;;;;;;2.20;2.00;;;22.50;70.00;;;;;;5132906;28;20047;-49
2021/06/14 04:30:34;;;;;;;1.90;1.70;;;22.50;70.00;;;;;;5133026;28;20138;-50
2021/06/14 04:33:00;;;;;;;2.00;1.60;;;22.60;70.00;;;;;;5132834;28;20073;-51
2021/06/14 04:35:26;;;;;;;1.70;1.60;;;22.60;70.70;;;;;;5132953;28;20043;-51
2021/06/14 04:37:52;;;;;;;4.28;1.65;;;22.50;70.00;;;;;;5132873;28;20051;-49
2021/06/14 04:40:18;;;;;;;1.60;1.50;;;22.50;70.00;;;;;;5113706;28;20057;-49
2021/06/14 04:42:44;;;;;;;2.80;1.80;;;22.50;70.00;;;;;;5132885;28;20092;-51
2021/06/14 04:45:10;;;;;;;1.70;1.60;;;22.50;70.00;;;;;;5114325;28;20051;-51
2021/06/14 04:47:36;;;;;;;2.08;1.80;;;22.50;70.00;;;;;;5132676;28;20047;-48
2021/06/14 04:50:03;;;;;;;2.35;1.77;;;22.50;70.00;;;;;;5132630;28;20049;-51
2021/06/14 04:52:28;;;;;;;1.92;1.73;;;22.50;70.00;;;;;;5133047;28;20039;-49
2021/06/14 04:54:55;;;;;;;2.10;1.80;;;22.50;70.00;;;;;;5133191;28;20049;-46
2021/06/14 04:57:21;;;;;;;2.58;1.73;;;22.50;70.00;;;;;;5132843;28;20484;-48
2021/06/14 04:59:47;;;;;;;1.88;1.58;;;22.50;70.00;;;;;;5132834;28;20047;-47
2021/06/14 05:02:13;;;;;;;1.70;1.50;;;22.50;70.10;;;;;;5132908;28;20504;-48
2021/06/14 05:04:38;;;;;;;2.00;1.80;;;22.60;70.10;;;;;;5133056;28;20043;-47
2021/06/14 05:07:04;;;;;;;1.90;1.80;;;22.50;70.10;;;;;;5133049;28;20405;-47
2021/06/14 05:09:30;;;;;;;2.03;1.83;;;22.50;70.10;;;;;;5132424;28;20039;-50
2021/06/14 05:11:56;;;;;;;2.00;1.70;;;22.50;70.10;;;;;;5132595;28;20040;-54
2021/06/14 05:14:21;;;;;;;2.15;1.70;;;22.50;70.10;;;;;;5135540;27;20411;-46
2021/06/14 05:16:47;;;;;;;2.30;1.92;;;22.50;70.10;;;;;;5136753;27;20043;-53
2021/06/14 05:19:13;;;;;;;1.95;1.60;;;22.50;70.10;;;;;;5136377;27;20055;-49
2021/06/14 05:21:38;;;;;;;1.98;1.77;;;22.50;70.10;;;;;;5136227;27;20072;-46
2021/06/14 05:24:05;;;;;;;1.83;1.67;;;22.50;70.00;;;;;;5136657;27;20043;-51
2021/06/14 05:26:31;;;;;;;1.65;1.50;;;22.50;70.10;;;;;;5136451;27;20536;-48
2021/06/14 05:28:56;;;;;;;1.73;1.48;;;22.50;70.10;;;;;;5136640;27;20051;-54
2021/06/14 05:31:22;;;;;;;1.70;1.60;;;22.50;70.10;;;;;;5135547;27;20480;-52
2021/06/14 05:33:48;;;;;;;2.33;1.83;;;22.50;70.10;;;;;;5136101;27;20437;-51
2021/06/14 05:36:13;;;;;;;1.98;1.70;;;22.50;70.10;;;;;;5136098;27;20047;-51
2021/06/14 05:38:40;;;;;;;1.98;1.75;;;22.50;70.10;;;;;;5135939;27;20046;-52
2021/06/14 05:41:06;;;;;;;2.30;1.90;;;22.50;70.10;;;;;;5135746;27;20364;-51
2021/06/14 05:43:31;;;;;;;1.40;1.30;;;22.50;70.10;;;;;;5135657;27;20046;-51
2021/06/14 05:45:57;;;;;;;2.38;1.80;;;22.50;70.10;;;;;;5136085;27;20067;-52
2021/06/14 05:48:23;;;;;;;2.17;1.98;;;22.50;70.10;;;;;;5136014;27;20055;-50
2021/06/14 05:50:51;;;;;;;1.77;1.63;;;22.50;70.10;;;;;;5135681;27;20050;-49
2021/06/14 05:53:17;;;;;;;2.47;1.80;;;22.50;70.10;;;;;;5134017;27;20502;-50
2021/06/14 05:55:43;;;;;;;2.30;1.88;;;22.50;70.10;;;;;;5135848;27;20075;-50
2021/06/14 05:58:09;;;;;;;2.10;1.60;;;22.50;70.10;;;;;;5135783;27;20475;-49
2021/06/14 06:00:35;;;;;;;2.58;1.77;;;22.50;70.10;;;;;;5135691;27;20082;-51
2021/06/14 06:03:00;;;;;;;1.88;1.60;;;22.50;70.10;;;;;;5135411;27;20073;-47
2021/06/14 06:05:26;;;;;;;1.92;1.67;;;22.50;70.10;;;;;;5135334;27;20506;-53
2021/06/14 06:07:52;;;;;;;1.88;1.50;;;22.50;70.10;;;;;;5135167;27;20498;-50
2021/06/14 06:10:18;;;;;;;2.13;1.90;;;22.50;70.10;;;;;;5135761;27;20051;-51
2021/06/14 06:12:44;;;;;;;3.22;2.03;;;22.50;70.10;;;;;;5135398;27;20535;-51
2021/06/14 06:15:14;;;;;;;2.28;1.90;;;22.50;70.10;;;;;;5135577;27;20136;-52
2021/06/14 06:17:40;;;;;;;1.85;1.50;;;22.50;70.10;;;;;;5135440;27;20502;-49
2021/06/14 06:20:11;;;;;;;1.92;1.70;;;22.50;70.10;;;;;;5135107;27;20039;-50
2021/06/14 06:22:37;;;;;;;1.77;1.60;;;22.50;70.10;;;;;;5135425;27;20375;-52
2021/06/14 06:25:12;;;;;;;2.75;2.00;;;22.50;70.10;;;;;;5134643;27;20047;-51
2021/06/14 06:27:38;;;;;;;1.90;1.70;;;22.50;70.10;;;;;;5134755;27;20063;-48
2021/06/14 06:30:06;;;;;;;1.73;1.50;;;22.50;70.10;;;;;;5128527;27;20552;-51
2021/06/14 06:32:32;;;;;;;2.25;1.67;;;22.50;70.10;;;;;;5114658;28;20130;-49
2021/06/14 06:34:57;;;;;;;1.95;1.75;;;22.50;70.10;;;;;;5114176;28;20517;-47
2021/06/14 06:37:23;;;;;;;2.28;1.90;;;22.50;70.10;;;;;;5114639;28;20039;-48
2021/06/14 06:39:49;;;;;;;1.77;1.63;;;22.50;70.00;;;;;;5113941;28;20050;-48
2021/06/14 06:42:15;;;;;;;1.88;1.63;;;22.50;70.00;;;;;;5114203;28;20044;-53
2021/06/14 06:44:41;;;;;;;2.10;1.80;;;22.50;70.00;;;;;;5114062;28;20499;-51
2021/06/14 06:47:06;;;;;;;2.00;1.80;;;22.50;70.00;;;;;;5114290;28;20047;-50
2021/06/14 06:49:33;;;;;;;2.20;1.90;;;22.50;70.00;;;;;;5113724;28;20047;-54
2021/06/14 06:51:59;;;;;;;2.83;1.92;;;22.50;70.00;;;;;;5114353;28;20051;-52
2021/06/14 06:54:25;;;;;;;2.58;1.73;;;22.50;70.00;;;;;;5113981;28;20047;-53
2021/06/14 06:56:53;;;;;;;2.05;1.85;;;22.50;69.90;;;;;;5114175;28;20047;-54
2021/06/14 06:59:21;;;;;;;5.95;3.10;;;22.50;70.00;;;;;;5113942;28;20040;-57
2021/06/14 07:01:47;;;;;;;6.60;3.40;;;22.60;69.10;;;;;;5113619;28;20071;-54
2021/06/14 07:04:13;;;;;;;5.95;2.97;;;22.60;68.70;;;;;;5113764;28;20050;-57
2021/06/14 07:06:39;;;;;;;4.47;2.55;;;22.60;68.40;;;;;;5114088;28;20054;-56
2021/06/14 07:09:05;;;;;;;5.28;2.97;;;22.50;68.30;;;;;;5113905;28;20126;-55
2021/06/14 07:11:32;;;;;;;4.82;3.03;;;22.60;68.20;;;;;;5113778;28;20076;-57
2021/06/14 07:13:58;;;;;;;6.18;3.15;;;22.60;68.20;;;;;;5114139;28;20126;-56
2021/06/14 07:16:24;;;;;;;5.50;3.13;;;22.60;68.10;;;;;;5113952;28;20126;-57
2021/06/14 07:18:51;;;;;;;8.02;3.78;;;22.60;68.10;;;;;;5114209;28;20127;-57
2021/06/14 07:21:17;;;;;;;4.57;2.78;;;22.60;68.00;;;;;;5113986;28;20122;-57
2021/06/14 07:23:43;;;;;;;5.82;3.03;;;22.60;68.00;;;;;;5113820;28;20082;-54
2021/06/14 07:26:09;;;;;;;9.65;3.90;;;22.70;67.50;;;;;;5113274;28;20090;-48
2021/06/14 07:28:35;;;;;;;9.77;3.40;;;22.70;67.20;;;;;;5113789;28;20043;-47
2021/06/14 07:31:03;;;;;;;5.53;3.42;;;22.80;67.20;;;;;;5125347;27;20473;-45
2021/06/14 07:33:28;;;;;;;4.70;3.22;;;22.80;67.20;;;;;;5134461;27;20442;-54
2021/06/14 07:35:54;;;;;;;5.45;3.72;;;22.80;67.30;;;;;;5133369;27;20074;-45
2021/06/14 07:38:20;;;;;;;7.18;3.78;;;22.80;67.30;;;;;;5133980;27;20329;-47
2021/06/14 07:40:47;;;;;;;3.70;3.08;;;22.80;67.40;;;;;;5133610;27;20047;-45
2021/06/14 07:43:13;;;;;;;5.93;3.10;;;22.80;67.50;;;;;;5133484;27;20047;-51
2021/06/14 07:45:41;;;;;;;3.97;3.28;;;22.80;67.60;;;;;;5133529;27;20043;-50
2021/06/14 07:48:10;;;;;;;4.88;3.00;;;22.80;67.70;;;;;;5133484;27;20071;-50
2021/06/14 07:50:37;;;;;;;4.80;2.80;;;22.90;67.80;;;;;;5133578;27;20064;-50
2021/06/14 07:53:03;;;;;;;4.28;2.63;;;22.80;67.90;;;;;;5104193;28;20045;-50
2021/06/14 07:55:30;;;;;;;4.30;2.88;;;22.80;68.00;;;;;;5092978;28;20047;-43
2021/06/14 07:57:56;;;;;;;5.20;3.40;;;22.80;68.00;;;;;;5091980;28;20036;-48
2021/06/14 08:00:22;;;;;;;4.07;2.70;;;22.80;68.10;;;;;;5091607;28;20062;-46
2021/06/14 08:02:47;;;;;;;4.63;3.08;;;22.80;68.10;;;;;;5093271;28;20079;-45
2021/06/14 08:05:13;;;;;;;3.58;2.70;;;22.90;68.20;;;;;;5091888;28;20048;-43
2021/06/14 08:07:40;;;;;;;4.63;2.72;;;22.90;68.30;;;;;;5109247;28;20047;-44
2021/06/14 08:10:10;;;;;;;3.22;2.72;;;22.90;68.40;;;;;;5112430;28;20123;-46
2021/06/14 08:12:49;;;;;;;4.82;2.75;;;22.90;68.40;;;;;;5101979;28;20618;-45
2021/06/14 08:15:18;;;;;;;5.05;2.88;;;22.90;68.50;;;;;;5091849;28;20055;-50
2021/06/14 08:17:44;;;;;;;3.55;2.40;;;22.90;68.50;;;;;;5091798;28;20044;-47
2021/06/14 08:25:25;;;;;;;3.83;2.65;;;22.90;68.60;;;;;;5009479;28;20057;-48
2021/06/14 08:27:50;;;;;;;4.40;3.03;;;22.90;68.60;;;;;;5009310;28;20115;-45
2021/06/14 08:30:23;;;;;;;4.32;2.60;;;22.90;68.70;;;;;;5014408;28;20549;-44
2021/06/14 08:32:50;;;;;;;3.38;2.25;;;23.00;68.70;;;;;;5029674;28;20089;-43
2021/06/14 08:35:18;;;;;;;3.33;2.50;;;23.00;68.80;;;;;;5049157;28;20465;-47
2021/06/14 08:37:46;;;;;;;3.15;2.50;;;23.00;68.80;;;;;;5049342;28;20060;-47
2021/06/14 08:40:15;;;;;;;2.63;2.20;;;23.00;68.80;;;;;;5049054;28;20049;-46
2021/06/14 08:42:42;;;;;;;3.30;2.72;;;23.00;68.80;;;;;;5048980;28;20052;-48
2021/06/14 08:45:11;;;;;;;3.58;2.08;;;23.10;68.80;;;;;;5047961;28;20160;-44
2021/06/14 08:47:38;;;;;;;3.17;2.30;;;23.10;68.80;;;;;;5048234;28;20048;-49
2021/06/14 08:50:08;;;;;;;4.18;2.60;;;23.10;68.90;;;;;;5050933;28;20120;-48
2021/06/14 08:52:35;;;;;;;4.00;2.30;;;23.10;68.80;;;;;;5053761;28;20070;-48
2021/06/14 08:55:03;;;;;;;2.10;1.83;;;23.10;68.80;;;;;;5053393;28;20110;-47
2021/06/14 08:57:29;;;;;;;3.25;2.10;;;23.10;68.90;;;;;;5053701;28;20049;-48
2021/06/14 08:59:54;;;;;;;3.83;2.42;;;23.10;68.80;;;;;;5053059;28;20723;-50
2021/06/14 09:02:20;;;;;;;3.30;2.08;;;23.10;68.80;;;;;;5078582;28;20134;-49
2021/06/14 09:04:46;;;;;;;2.70;2.00;;;23.10;68.80;;;;;;5115482;28;20507;-53
2021/06/14 09:07:12;;;;;;;3.03;1.90;;;23.20;68.80;;;;;;5116293;28;20051;-45
2021/06/14 09:09:38;;;;;;;3.28;2.00;;;23.20;68.80;;;;;;5116111;28;20500;-50
2021/06/14 09:12:04;;;;;;;2.35;2.00;;;23.20;68.80;;;;;;5116232;28;20120;-52
2021/06/14 09:14:36;;;;;;;3.35;2.10;;;23.20;68.80;;;;;;5115214;28;20051;-54
2021/06/14 09:17:09;;;;;;;2.63;2.08;;;23.20;68.70;;;;;;5116324;28;20048;-54
2021/06/14 09:19:41;;;;;;;2.50;1.95;;;23.20;68.70;;;;;;5116016;28;20118;-55
2021/06/14 09:22:14;;;;;;;2.20;1.92;;;23.30;68.80;;;;;;5115916;28;20063;-55
2021/06/14 09:25:12;;;;;;;2.97;1.92;;;23.30;68.70;;;;;;5115643;28;20066;-48
2021/06/14 09:27:52;;;;;;;1.90;1.70;;;23.30;68.60;;;;;;5095328;28;20075;-52
2021/06/14 09:30:21;;;;;;;2.55;1.85;;;23.30;68.60;;;;;;5101032;28;20043;-49
2021/06/14 09:32:54;;;;;;;2.15;1.85;;;23.40;68.70;;;;;;5115835;28;20376;-46
2021/06/14 09:35:21;;;;;;;3.63;2.20;;;23.40;68.70;;;;;;5117041;27;20132;-43
2021/06/14 09:38:13;;;;;;;2.60;2.00;;;23.40;68.60;;;;;;5136106;27;20046;-52
2021/06/14 09:40:53;;;;;;;2.70;1.98;;;23.40;68.60;;;;;;5136923;27;20050;-49
2021/06/14 09:43:26;;;;;;;2.10;1.70;;;23.40;68.60;;;;;;5136562;27;20051;-53
2021/06/14 09:45:53;;;;;;;2.42;1.67;;;23.40;68.50;;;;;;5135618;27;20047;-48
2021/06/14 09:48:24;;;;;;;2.10;1.70;;;23.50;68.60;;;;;;5135669;27;20068;-51
2021/06/14 09:50:52;;;;;;;2.55;1.92;;;23.50;68.50;;;;;;5135994;27;20043;-46
2021/06/14 09:53:22;;;;;;;2.35;1.92;;;23.50;68.50;;;;;;5135997;27;20047;-50
2021/06/14 09:55:51;;;;;;;2.63;1.85;;;23.50;69.10;;;;;;5135992;27;20043;-57
2021/06/14 09:58:25;;;;;;;2.85;1.90;;;23.50;68.40;;;;;;5134685;27;20495;-52
2021/06/14 10:00:57;;;;;;;2.08;1.80;;;23.60;68.40;;;;;;5135122;27;20217;-52
2021/06/14 10:03:41;;;;;;;1.77;1.40;;;23.60;68.40;;;;;;5135426;27;20353;-51
2021/06/14 10:06:07;;;;;;;2.50;1.70;;;23.60;68.30;;;;;;5135420;27;20104;-51
2021/06/14 10:08:34;;;;;;;2.60;1.70;;;23.60;68.30;;;;;;5130339;27;20499;-49
2021/06/14 10:11:17;;;;;;;2.17;1.80;;;23.60;68.30;;;;;;5129062;27;20369;-52
2021/06/14 10:13:45;;;;;;;2.08;1.85;;;23.70;68.30;;;;;;5133927;27;20047;-49
2021/06/14 10:16:13;;;;;;;1.88;1.50;;;23.70;68.20;;;;;;5120891;27;20043;-44
2021/06/14 10:18:53;;;;;;;2.05;1.63;;;23.70;68.20;;;;;;5111164;27;20088;-44
2021/06/14 10:21:26;;;;;;;2.28;1.70;;;23.70;68.10;;;;;;5133429;27;20452;-48
2021/06/14 10:23:55;;;;;;;2.03;1.52;;;23.70;68.10;;;;;;5114065;27;20073;-49
2021/06/14 10:26:28;;;;;;;1.88;1.55;;;23.70;68.10;;;;;;5135379;27;20067;-48
2021/06/14 10:28:55;;;;;;;2.25;1.83;;;23.70;68.00;;;;;;5132937;27;20429;-49
2021/06/14 10:31:22;;;;;;;2.00;1.70;;;23.80;68.00;;;;;;5120754;27;20047;-49
2021/06/14 10:33:53;;;;;;;2.70;1.85;;;23.80;68.00;;;;;;5120086;27;20052;-45
2021/06/14 10:36:27;;;;;;;1.73;1.52;;;23.80;68.00;;;;;;5124094;27;20050;-48
2021/06/14 10:39:09;;;;;;;2.25;1.70;;;23.80;67.90;;;;;;5120844;27;20048;-51
2021/06/14 10:41:35;;;;;;;1.77;1.42;;;23.80;67.80;;;;;;5123024;27;20040;-45
2021/06/14 10:44:04;;;;;;;2.33;1.98;;;23.90;67.90;;;;;;5123495;27;20395;-47
2021/06/14 10:46:30;;;;;;;1.67;1.40;;;23.90;67.80;;;;;;5119871;27;20062;-47
2021/06/14 10:49:00;;;;;;;1.65;1.52;;;23.90;67.80;;;;;;5105935;28;20058;-47
2021/06/14 10:51:27;;;;;;;1.98;1.55;;;23.90;67.70;;;;;;5115040;27;20073;-50
2021/06/14 10:54:06;;;;;;;2.53;1.67;;;23.90;67.70;;;;;;5101464;28;20067;-48
2021/06/14 10:56:32;;;;;;;2.00;1.55;;;24.00;67.60;;;;;;5097717;27;20049;-48
2021/06/14 10:58:59;;;;;;;1.75;1.65;;;24.00;67.60;;;;;;5109189;27;20134;-47
2021/06/14 11:01:37;;;;;;;1.67;1.58;;;24.00;67.50;;;;;;5093671;28;20036;-46
2021/06/14 11:04:05;;;;;;;2.58;1.75;;;24.00;67.50;;;;;;5091294;28;20043;-47
2021/06/14 11:06:34;;;;;;;2.45;1.60;;;24.00;67.50;;;;;;5094763;28;20072;-51
2021/06/14 11:09:13;;;;;;;1.83;1.48;;;24.00;67.50;;;;;;5099174;28;20581;-50
2021/06/14 11:11:49;;;;;;;1.60;1.20;;;24.10;67.60;;;;;;5095147;27;20407;-49
2021/06/14 11:14:28;;;;;;;1.60;1.50;;;24.10;67.50;;;;;;5092829;28;20418;-48
2021/06/14 11:16:57;;;;;;;1.77;1.48;;;24.10;67.40;;;;;;5105921;28;20043;-50
2021/06/14 11:19:33;;;;;;;2.00;1.40;;;24.10;67.40;;;;;;5113735;28;20062;-48
2021/06/14 11:22:00;;;;;;;1.40;1.30;;;24.10;67.30;;;;;;5113671;27;20051;-48
2021/06/14 11:24:37;;;;;;;1.67;1.58;;;24.10;67.30;;;;;;5125284;27;20043;-46
2021/06/14 11:27:05;;;;;;;2.35;1.80;;;24.20;67.20;;;;;;5109631;28;20103;-50
2021/06/14 11:29:41;;;;;;;2.03;1.52;;;24.20;67.20;;;;;;5112536;28;20420;-43
2021/06/14 11:32:20;;;;;;;1.90;1.40;;;24.20;67.20;;;;;;5130563;27;20135;-48
2021/06/14 11:34:48;;;;;;;2.40;1.63;;;24.20;67.10;;;;;;5130581;27;20048;-46
2021/06/14 11:37:14;;;;;;;1.60;1.45;;;24.20;67.10;;;;;;5129271;27;20040;-48
2021/06/14 11:39:40;;;;;;;1.90;1.50;;;24.30;67.10;;;;;;5130538;27;20044;-48
2021/06/14 11:42:15;;;;;;;1.45;1.33;;;24.30;67.00;;;;;;5130231;27;20082;-48
2021/06/14 11:45:00;;;;;;;1.58;1.35;;;24.30;67.00;;;;;;5129995;27;20122;-48
2021/06/14 11:47:28;;;;;;;2.13;1.65;;;24.30;67.00;;;;;;5130311;27;20108;-50
2021/06/14 11:49:59;;;;;;;2.25;1.80;;;24.30;66.90;;;;;;5129131;27;20325;-50
2021/06/14 11:52:35;;;;;;;2.42;1.70;;;24.30;66.90;;;;;;5129620;27;20039;-49
2021/06/14 11:55:12;;;;;;;2.17;1.75;;;24.30;66.80;;;;;;5130309;27;20454;-51
2021/06/14 11:57:43;;;;;;;2.22;1.70;;;24.40;66.80;;;;;;5117429;27;20119;-48
2021/06/14 12:00:25;;;;;;;2.35;1.52;;;24.40;66.80;;;;;;5110001;28;20044;-49
2021/06/14 12:02:50;;;;;;;1.88;1.52;;;24.40;66.70;;;;;;5109309;28;20479;-51
2021/06/14 12:05:16;;;;;;;2.28;1.88;;;24.40;66.70;;;;;;5108704;28;20075;-49
2021/06/14 12:07:42;;;;;;;1.48;1.38;;;24.40;66.70;;;;;;5108705;28;20094;-50
2021/06/14 12:10:13;;;;;;;1.80;1.48;;;24.40;66.70;;;;;;5109375;28;20044;-50
2021/06/14 12:12:40;;;;;;;1.50;1.40;;;24.50;66.70;;;;;;5108748;28;20554;-45
2021/06/14 12:15:08;;;;;;;1.55;1.45;;;24.50;66.60;;;;;;5110943;27;20130;-52
2021/06/14 12:17:36;;;;;;;1.90;1.42;;;24.50;66.60;;;;;;5109011;28;20148;-52
2021/06/14 12:20:06;;;;;;;1.40;1.30;;;24.50;66.50;;;;;;5108718;28;20048;-48
2021/06/14 12:22:32;;;;;;;2.42;1.77;;;24.50;66.50;;;;;;5107243;28;20388;-52
2021/06/14 12:25:07;;;;;;;1.73;1.60;;;24.50;66.70;;;;;;5112468;28;20040;-51
2021/06/14 12:27:33;;;;;;;2.22;1.83;;;24.50;66.40;;;;;;5117153;28;20441;-50
2021/06/14 12:30:03;;;;;;;1.73;1.50;;;24.50;66.40;;;;;;5120690;27;20039;-51
2021/06/14 12:32:30;;;;;;;2.25;1.92;;;24.50;66.40;;;;;;5128023;28;20051;-51
2021/06/14 12:35:01;;;;;;;2.00;1.58;;;24.60;66.40;;;;;;5129147;27;20074;-51
2021/06/14 12:37:27;;;;;;;1.90;1.70;;;24.60;66.30;;;;;;5128864;27;20118;-50
2021/06/14 12:40:00;;;;;;;1.80;1.50;;;24.60;66.30;;;;;;5126234;28;20100;-49
2021/06/14 12:42:26;;;;;;;2.38;1.58;;;24.60;66.30;;;;;;5121323;27;20158;-50
2021/06/14 12:45:00;;;;;;;1.63;1.52;;;24.60;66.30;;;;;;5115661;28;20043;-47
2021/06/14 12:47:28;;;;;;;1.60;1.50;;;24.60;66.20;;;;;;5115086;28;20078;-49
2021/06/14 12:49:54;;;;;;;1.95;1.75;;;24.60;66.20;;;;;;5114835;27;20147;-51
2021/06/14 12:52:23;;;;;;;2.00;1.80;;;24.60;66.20;;;;;;5115290;28;20051;-50
2021/06/14 12:54:49;;;;;;;2.58;1.75;;;24.60;66.20;;;;;;5115183;28;20039;-48
2021/06/14 12:57:15;;;;;;;2.50;1.77;;;24.60;66.20;;;;;;5114479;28;20058;-52
2021/06/14 12:59:42;;;;;;;2.25;1.70;;;24.60;66.10;;;;;;5115614;28;20051;-53